Time;durP1;ratioP1;P1;durP2;ratioP2;P2;SDS_P1;SDS_P2;PMS_P1;PMS_P2;Temp;Humidity;BMP_temperature;BMP_pressure;BME280_temperature;BME280_humidity;BME280_pressure;Samples;Min_cycle;Max_cycle;Signal;HPM_P1;HPM_P2
2022/03/13 00:00:17;;;;;;;11.20;10.00;;;10.30;77.80;;;;;;5066107;28;20433;-69
2022/03/13 00:02:46;;;;;;;12.60;9.80;;;10.30;77.90;;;;;;5065094;28;20598;-69
2022/03/13 00:05:16;;;;;;;13.53;10.80;;;10.30;77.80;;;;;;5058417;28;20408;-69
2022/03/13 00:07:43;;;;;;;10.27;9.27;;;10.30;77.80;;;;;;5070013;28;20492;-68
2022/03/13 00:10:09;;;;;;;12.23;9.97;;;10.30;77.80;;;;;;5060233;28;20458;-69
2022/03/13 00:12:36;;;;;;;13.13;10.67;;;10.30;77.80;;;;;;5062670;28;20459;-69
2022/03/13 00:15:05;;;;;;;13.77;9.77;;;10.30;77.80;;;;;;5067849;28;20495;-71
2022/03/13 00:17:31;;;;;;;11.20;9.50;;;10.30;77.50;;;;;;5056646;28;20416;-69
2022/03/13 00:19:59;;;;;;;11.30;10.10;;;10.30;76.90;;;;;;5067873;28;20915;-69
2022/03/13 00:22:25;;;;;;;14.90;10.13;;;10.30;76.70;;;;;;5062066;28;20277;-69
2022/03/13 00:24:50;;;;;;;14.13;10.40;;;10.20;76.20;;;;;;5061351;28;20412;-69
2022/03/13 00:27:16;;;;;;;12.37;11.07;;;10.30;76.20;;;;;;5069289;28;20181;-69
2022/03/13 00:29:41;;;;;;;10.23;9.00;;;10.30;75.70;;;;;;5056317;28;20908;-69
2022/03/13 00:32:08;;;;;;;10.23;9.03;;;10.30;75.20;;;;;;5066086;28;20671;-68
2022/03/13 00:34:34;;;;;;;12.93;10.17;;;10.30;74.80;;;;;;5063365;28;20174;-69
2022/03/13 00:37:00;;;;;;;10.30;8.33;;;10.20;73.60;;;;;;5058824;28;20442;-69
2022/03/13 00:39:26;;;;;;;11.00;9.53;;;10.10;73.70;;;;;;5069050;28;20869;-69
2022/03/13 00:41:52;;;;;;;13.17;9.23;;;10.10;73.50;;;;;;5057474;28;20186;-68
2022/03/13 00:44:18;;;;;;;11.73;9.57;;;10.10;73.10;;;;;;5066659;28;20412;-69
2022/03/13 00:46:44;;;;;;;12.20;9.30;;;10.00;71.80;;;;;;5060708;28;20451;-68
2022/03/13 00:49:09;;;;;;;12.20;9.70;;;9.90;73.00;;;;;;5067525;28;20983;-68
2022/03/13 00:51:35;;;;;;;12.93;10.33;;;9.80;72.80;;;;;;5055098;28;20182;-68
2022/03/13 00:54:01;;;;;;;11.30;9.73;;;9.70;72.50;;;;;;5066553;28;20166;-69
2022/03/13 00:56:26;;;;;;;13.10;9.53;;;9.60;72.30;;;;;;5061789;28;20173;-69
2022/03/13 00:58:52;;;;;;;12.53;9.60;;;9.60;72.30;;;;;;5054121;28;20585;-69
2022/03/13 01:01:18;;;;;;;12.37;11.17;;;9.50;72.00;;;;;;5052545;28;20178;-68
2022/03/13 01:03:43;;;;;;;11.57;9.33;;;9.50;71.90;;;;;;5052204;28;20408;-69
2022/03/13 01:06:09;;;;;;;14.53;9.40;;;9.50;71.40;;;;;;5052454;28;20201;-69
2022/03/13 01:08:35;;;;;;;12.33;8.87;;;9.50;71.50;;;;;;5052355;28;20193;-70
2022/03/13 01:11:02;;;;;;;12.03;9.50;;;9.40;71.90;;;;;;5052288;28;20257;-69
2022/03/13 01:13:30;;;;;;;14.70;10.50;;;9.40;72.00;;;;;;5052721;28;20499;-69
2022/03/13 01:16:11;;;;;;;10.80;9.30;;;9.40;72.40;;;;;;5052948;28;20435;-68
2022/03/13 01:18:43;;;;;;;10.87;9.13;;;9.40;71.70;;;;;;5053359;28;20405;-68
2022/03/13 01:21:10;;;;;;;11.03;9.13;;;9.30;70.90;;;;;;5052343;28;20408;-70
2022/03/13 01:23:37;;;;;;;11.80;8.90;;;9.20;71.00;;;;;;5052445;28;20427;-70
2022/03/13 01:26:38;;;;;;;10.87;9.07;;;9.30;71.10;;;;;;5052491;28;20412;-70
2022/03/13 01:29:12;;;;;;;10.77;9.57;;;9.30;70.90;;;;;;4952129;29;20513;-70
2022/03/13 01:31:40;;;;;;;11.53;8.93;;;9.20;70.00;;;;;;4951727;29;20536;-70
2022/03/13 01:34:11;;;;;;;11.37;9.10;;;9.20;69.50;;;;;;4952207;29;20427;-70
2022/03/13 01:36:37;;;;;;;13.87;9.23;;;9.10;69.10;;;;;;4952159;29;20865;-70
2022/03/13 01:39:04;;;;;;;14.77;9.83;;;9.00;69.10;;;;;;4952070;29;20984;-71
2022/03/13 01:41:32;;;;;;;12.87;10.03;;;9.10;69.90;;;;;;4952035;29;20413;-70
2022/03/13 01:43:59;;;;;;;12.60;9.50;;;9.00;70.10;;;;;;4951691;29;20429;-70
2022/03/13 01:46:26;;;;;;;13.30;10.20;;;9.00;70.70;;;;;;4951616;29;20504;-69
2022/03/13 01:49:06;;;;;;;12.00;9.60;;;8.90;71.10;;;;;;4951294;29;21096;-70
2022/03/13 01:51:33;;;;;;;11.23;9.97;;;8.70;72.40;;;;;;4951863;29;21013;-69
2022/03/13 01:54:02;;;;;;;13.67;9.90;;;8.60;72.40;;;;;;4951468;29;20452;-70
2022/03/13 01:56:29;;;;;;;11.43;9.40;;;8.50;72.50;;;;;;4951453;29;20414;-70
2022/03/13 01:58:56;;;;;;;11.17;9.77;;;8.50;71.90;;;;;;4951552;29;20451;-70
2022/03/13 02:01:25;;;;;;;13.93;10.30;;;8.50;71.60;;;;;;4951379;28;20449;-69
2022/03/13 02:03:51;;;;;;;10.93;9.60;;;8.50;71.00;;;;;;5034461;28;20458;-70
2022/03/13 02:06:17;;;;;;;14.20;8.87;;;8.50;71.00;;;;;;5051858;28;20806;-70
2022/03/13 02:08:45;;;;;;;12.37;9.90;;;8.50;70.20;;;;;;5051413;28;20459;-71
2022/03/13 02:11:14;;;;;;;14.97;10.50;;;8.50;69.50;;;;;;5051859;28;20414;-70
2022/03/13 02:13:40;;;;;;;12.80;9.80;;;8.60;69.50;;;;;;5051246;28;20541;-70
2022/03/13 02:16:07;;;;;;;13.17;9.73;;;8.60;68.60;;;;;;5051580;28;20504;-70
2022/03/13 02:18:32;;;;;;;10.60;9.10;;;8.50;67.90;;;;;;5051340;28;20205;-70
2022/03/13 02:20:58;;;;;;;12.70;9.73;;;8.40;67.50;;;;;;5051439;28;20423;-69
2022/03/13 02:23:26;;;;;;;13.80;9.67;;;8.30;67.10;;;;;;5051126;28;20257;-70
2022/03/13 02:25:58;;;;;;;10.40;9.40;;;8.20;67.10;;;;;;5051492;28;20811;-69
2022/03/13 02:28:26;;;;;;;11.30;9.23;;;8.10;67.10;;;;;;5051474;28;20499;-70
2022/03/13 02:30:57;;;;;;;11.90;9.60;;;8.00;66.40;;;;;;5051218;28;21084;-67
2022/03/13 02:33:23;;;;;;;10.50;9.40;;;7.90;66.30;;;;;;5051596;28;20409;-68
2022/03/13 02:35:54;;;;;;;14.17;9.33;;;7.90;65.80;;;;;;5051095;28;20414;-68
2022/03/13 02:38:20;;;;;;;10.80;9.03;;;7.80;66.20;;;;;;5051278;28;20230;-68
2022/03/13 02:40:46;;;;;;;11.43;9.77;;;7.90;66.00;;;;;;5051081;28;20471;-68
2022/03/13 02:43:11;;;;;;;12.23;9.53;;;7.90;65.30;;;;;;5050940;28;20186;-68
2022/03/13 02:45:38;;;;;;;10.03;9.00;;;7.90;65.10;;;;;;5051271;28;20544;-68
2022/03/13 02:48:06;;;;;;;10.63;8.73;;;7.90;64.90;;;;;;5051310;28;20191;-68
2022/03/13 02:50:33;;;;;;;11.30;8.87;;;8.00;63.70;;;;;;5059539;22;20577;-69
2022/03/13 02:52:59;;;;;;;16.50;8.80;;;8.00;62.80;;;;;;5031650;28;20632;-68
2022/03/13 02:55:25;;;;;;;12.03;8.87;;;8.10;62.90;;;;;;5032284;28;20555;-68
2022/03/13 02:57:52;;;;;;;13.03;9.03;;;8.10;62.70;;;;;;5032278;28;20902;-68
2022/03/13 03:00:18;;;;;;;14.00;9.53;;;8.20;62.20;;;;;;5032261;28;20955;-69
2022/03/13 03:02:44;;;;;;;11.53;8.90;;;8.20;61.80;;;;;;5031761;28;20405;-69
2022/03/13 03:05:10;;;;;;;13.80;8.93;;;8.10;61.90;;;;;;5032286;28;20409;-69
2022/03/13 03:07:36;;;;;;;9.30;8.23;;;8.10;61.80;;;;;;5031456;28;20241;-68
2022/03/13 03:10:04;;;;;;;13.03;9.17;;;8.10;61.40;;;;;;5032146;28;20202;-68
2022/03/13 03:12:30;;;;;;;11.07;9.33;;;8.00;61.10;;;;;;5031963;28;20833;-68
2022/03/13 03:14:55;;;;;;;10.43;8.17;;;8.10;61.20;;;;;;5035106;28;20409;-69
2022/03/13 03:17:21;;;;;;;11.90;9.00;;;8.00;60.90;;;;;;5035022;28;20454;-69
2022/03/13 03:19:47;;;;;;;15.77;9.33;;;8.10;60.00;;;;;;5036141;28;20718;-68
2022/03/13 03:22:13;;;;;;;11.47;8.60;;;8.00;59.90;;;;;;5035484;28;20667;-68
2022/03/13 03:24:39;;;;;;;11.30;8.73;;;8.10;60.70;;;;;;5017723;28;20177;-69
2022/03/13 03:27:05;;;;;;;12.67;9.17;;;7.90;61.50;;;;;;5017922;28;20445;-68
2022/03/13 03:29:31;;;;;;;11.57;8.73;;;7.80;61.40;;;;;;5018349;28;20516;-68
2022/03/13 03:31:57;;;;;;;11.40;9.53;;;7.90;60.90;;;;;;5018312;28;20284;-68
2022/03/13 03:34:25;;;;;;;9.73;8.73;;;7.90;60.50;;;;;;5038965;28;20196;-68
2022/03/13 03:36:57;;;;;;;11.93;9.10;;;7.90;60.60;;;;;;5042556;28;20406;-68
2022/03/13 03:39:24;;;;;;;13.50;9.70;;;7.90;59.50;;;;;;5037478;28;20973;-69
2022/03/13 03:41:51;;;;;;;10.50;8.83;;;7.90;59.20;;;;;;5036866;28;20476;-68
2022/03/13 03:44:18;;;;;;;10.87;9.00;;;7.90;58.70;;;;;;5036978;28;20420;-68
2022/03/13 03:46:45;;;;;;;10.90;8.90;;;7.90;58.10;;;;;;5036605;28;20420;-68
2022/03/13 03:49:11;;;;;;;11.70;8.80;;;8.00;57.60;;;;;;5036764;28;20524;-68
2022/03/13 03:51:37;;;;;;;14.80;8.50;;;8.00;57.30;;;;;;5036352;28;20411;-67
2022/03/13 03:54:04;;;;;;;11.47;8.40;;;8.10;56.40;;;;;;5035457;28;20177;-68
2022/03/13 03:56:30;;;;;;;11.53;9.30;;;8.10;56.20;;;;;;5035184;28;20443;-68
2022/03/13 03:58:55;;;;;;;12.20;8.87;;;8.10;56.20;;;;;;5017155;28;20459;-68
2022/03/13 04:01:21;;;;;;;17.00;9.30;;;8.10;56.40;;;;;;5035194;28;20413;-68
2022/03/13 04:03:47;;;;;;;9.67;8.40;;;8.10;56.30;;;;;;5034557;28;20169;-68
2022/03/13 04:06:13;;;;;;;11.37;8.87;;;8.10;56.40;;;;;;5034820;28;20420;-68
2022/03/13 04:08:38;;;;;;;14.17;8.90;;;8.10;56.50;;;;;;5034433;28;20189;-68
2022/03/13 04:11:04;;;;;;;11.23;8.63;;;8.10;56.50;;;;;;5034967;28;20322;-68
2022/03/13 04:13:29;;;;;;;10.00;8.50;;;8.00;56.20;;;;;;5016679;28;20234;-69
2022/03/13 04:15:55;;;;;;;12.43;9.73;;;8.00;57.10;;;;;;5017283;28;20339;-69
2022/03/13 04:18:22;;;;;;;12.70;9.30;;;7.90;56.90;;;;;;5034782;28;20177;-68
2022/03/13 04:20:47;;;;;;;10.67;8.50;;;7.90;56.50;;;;;;5033579;28;20436;-69
2022/03/13 04:23:13;;;;;;;10.10;8.20;;;7.80;56.50;;;;;;5034169;28;20508;-67
2022/03/13 04:25:38;;;;;;;10.83;8.40;;;7.90;56.50;;;;;;5033475;28;20168;-67
2022/03/13 04:28:04;;;;;;;14.07;9.13;;;7.80;57.20;;;;;;5034773;28;20238;-68
2022/03/13 04:30:34;;;;;;;10.93;8.97;;;7.60;57.70;;;;;;5034591;28;20230;-68
2022/03/13 04:33:00;;;;;;;10.20;8.50;;;7.60;57.80;;;;;;5034236;28;20968;-68
2022/03/13 04:35:26;;;;;;;13.00;9.03;;;7.60;58.50;;;;;;5016921;28;20417;-68
2022/03/13 04:37:52;;;;;;;11.27;8.93;;;7.50;58.70;;;;;;5034542;28;20464;-69
2022/03/13 04:40:17;;;;;;;11.83;8.87;;;7.40;58.80;;;;;;5034474;28;20197;-68
2022/03/13 04:42:43;;;;;;;12.20;9.23;;;7.40;58.60;;;;;;5034312;28;20539;-68
2022/03/13 04:45:09;;;;;;;15.20;8.60;;;7.30;58.70;;;;;;5016517;28;20177;-68
2022/03/13 04:47:34;;;;;;;11.27;8.77;;;7.30;58.90;;;;;;5034207;28;20535;-68
2022/03/13 04:50:00;;;;;;;11.20;8.73;;;7.30;59.00;;;;;;5034052;28;20222;-68
2022/03/13 04:52:27;;;;;;;16.30;9.23;;;7.30;58.60;;;;;;5033705;28;20171;-68
2022/03/13 04:54:52;;;;;;;11.30;8.90;;;7.40;57.90;;;;;;5034239;28;20510;-69
2022/03/13 04:57:19;;;;;;;10.50;9.40;;;7.30;57.20;;;;;;5034007;28;20420;-68
2022/03/13 04:59:44;;;;;;;13.07;8.90;;;7.40;56.90;;;;;;5033891;28;20291;-68
2022/03/13 05:02:10;;;;;;;10.47;8.70;;;7.40;56.50;;;;;;5015818;28;20505;-68
2022/03/13 05:04:35;;;;;;;10.40;8.87;;;7.40;56.70;;;;;;5033616;28;20181;-68
2022/03/13 05:07:01;;;;;;;10.37;8.40;;;7.40;56.40;;;;;;5016029;28;20176;-68
2022/03/13 05:09:27;;;;;;;9.57;8.47;;;7.50;56.00;;;;;;5033380;28;20197;-69
2022/03/13 05:11:53;;;;;;;10.60;8.17;;;7.50;55.40;;;;;;5033365;28;20407;-68
2022/03/13 05:14:19;;;;;;;10.70;9.10;;;7.60;54.90;;;;;;5024455;28;20229;-68
2022/03/13 05:16:45;;;;;;;13.73;9.33;;;7.70;54.40;;;;;;5018086;28;20438;-68
2022/03/13 05:19:10;;;;;;;9.20;8.20;;;7.70;55.50;;;;;;5033836;28;20199;-68
2022/03/13 05:21:36;;;;;;;11.47;8.80;;;7.60;55.60;;;;;;5034593;28;20192;-68
2022/03/13 05:24:02;;;;;;;12.67;9.23;;;7.60;55.00;;;;;;5035356;28;20210;-68
2022/03/13 05:26:28;;;;;;;9.47;8.30;;;7.60;55.40;;;;;;5035008;28;20189;-69
2022/03/13 05:28:54;;;;;;;11.70;9.23;;;7.60;55.60;;;;;;5034239;28;20199;-68
2022/03/13 05:31:19;;;;;;;13.27;9.17;;;7.60;55.50;;;;;;5034773;28;20424;-68
2022/03/13 05:33:45;;;;;;;10.60;8.80;;;7.50;55.00;;;;;;5034119;28;20177;-68
2022/03/13 05:36:11;;;;;;;13.03;9.63;;;7.50;55.80;;;;;;5034538;28;20203;-68
2022/03/13 05:38:37;;;;;;;11.90;8.93;;;7.50;56.60;;;;;;5016219;28;20184;-68
2022/03/13 05:41:04;;;;;;;15.10;9.00;;;7.50;56.40;;;;;;5034452;28;20500;-68
2022/03/13 05:43:32;;;;;;;12.53;9.50;;;7.40;57.50;;;;;;5034273;28;20468;-68
2022/03/13 05:45:58;;;;;;;14.40;11.30;;;7.30;58.10;;;;;;5016673;28;20407;-68
2022/03/13 05:48:25;;;;;;;11.60;10.40;;;7.30;57.80;;;;;;5033572;28;20916;-69
2022/03/13 05:50:52;;;;;;;12.77;9.43;;;7.30;57.80;;;;;;5033162;28;20214;-68
2022/03/13 05:53:17;;;;;;;11.63;9.67;;;7.20;57.70;;;;;;5014878;28;20410;-69
2022/03/13 05:55:43;;;;;;;14.73;10.17;;;7.20;57.10;;;;;;5033129;28;20407;-68
2022/03/13 05:58:08;;;;;;;12.70;10.50;;;7.30;56.90;;;;;;5038476;28;20178;-69
2022/03/13 06:00:34;;;;;;;13.47;9.90;;;7.40;56.60;;;;;;5035818;28;20200;-68
2022/03/13 06:03:00;;;;;;;11.27;8.87;;;7.40;56.50;;;;;;5035113;28;20182;-69
2022/03/13 06:05:27;;;;;;;10.93;8.00;;;7.40;56.70;;;;;;5035491;28;20172;-68
2022/03/13 06:07:55;;;;;;;11.90;8.70;;;7.40;56.10;;;;;;5016746;28;20928;-68
2022/03/13 06:10:20;;;;;;;13.50;8.77;;;7.50;55.80;;;;;;5034353;28;20536;-68
2022/03/13 06:12:46;;;;;;;11.30;9.50;;;7.50;54.90;;;;;;5033638;28;20800;-70
2022/03/13 06:15:12;;;;;;;11.97;8.50;;;7.60;54.70;;;;;;5034369;28;20171;-68
2022/03/13 06:17:39;;;;;;;11.63;8.80;;;7.60;54.50;;;;;;5034159;28;20642;-68
2022/03/13 06:20:07;;;;;;;10.77;8.93;;;7.60;54.60;;;;;;5015904;28;20850;-68
2022/03/13 06:22:33;;;;;;;12.30;9.30;;;7.60;54.80;;;;;;5033771;28;20490;-68
2022/03/13 06:24:58;;;;;;;11.03;9.43;;;7.70;55.00;;;;;;5033567;28;20415;-68
2022/03/13 06:27:24;;;;;;;9.90;8.90;;;7.70;55.00;;;;;;5033501;28;20651;-68
2022/03/13 06:29:49;;;;;;;13.60;9.37;;;7.80;54.70;;;;;;5033123;28;20211;-68
2022/03/13 06:32:15;;;;;;;11.30;9.23;;;7.70;54.60;;;;;;5033599;28;20168;-68
2022/03/13 06:34:41;;;;;;;13.03;9.50;;;7.70;54.70;;;;;;5033557;28;20165;-68
2022/03/13 06:37:08;;;;;;;12.63;8.90;;;7.70;55.10;;;;;;5015884;28;20309;-67
2022/03/13 06:39:33;;;;;;;10.93;9.50;;;7.80;55.40;;;;;;5033142;28;20801;-69
2022/03/13 06:41:59;;;;;;;11.17;8.67;;;7.80;55.20;;;;;;5033541;28;20416;-68
2022/03/13 06:44:24;;;;;;;11.13;9.17;;;7.90;54.50;;;;;;5034523;28;20218;-68
2022/03/13 06:46:50;;;;;;;10.00;8.60;;;7.90;54.40;;;;;;5033681;28;20182;-68
2022/03/13 06:49:16;;;;;;;10.23;8.93;;;7.90;54.30;;;;;;5017242;28;20229;-68
2022/03/13 06:51:41;;;;;;;9.50;8.47;;;8.00;54.10;;;;;;5037143;28;20769;-69
2022/03/13 06:54:11;;;;;;;12.30;8.80;;;8.00;54.10;;;;;;5037166;28;20698;-67
2022/03/13 06:56:38;;;;;;;11.20;8.87;;;8.10;53.70;;;;;;5037713;28;20586;-68
2022/03/13 06:59:04;;;;;;;10.33;8.67;;;8.20;53.70;;;;;;5037439;28;20417;-68
2022/03/13 07:01:31;;;;;;;13.50;7.97;;;8.20;53.50;;;;;;5037145;28;20425;-68
2022/03/13 07:03:56;;;;;;;13.20;8.80;;;8.20;53.70;;;;;;5036537;28;20424;-68
2022/03/13 07:06:22;;;;;;;11.73;8.97;;;8.30;53.50;;;;;;5036764;28;20418;-68
2022/03/13 07:08:47;;;;;;;9.33;8.20;;;8.30;53.00;;;;;;5036486;28;20211;-67
2022/03/13 07:11:15;;;;;;;9.43;8.43;;;8.40;53.10;;;;;;5018621;28;20221;-68
2022/03/13 07:13:40;;;;;;;10.07;8.67;;;8.50;52.60;;;;;;5018192;28;20185;-69
2022/03/13 07:16:07;;;;;;;9.57;8.57;;;8.50;52.40;;;;;;5036901;28;20418;-68
2022/03/13 07:18:32;;;;;;;12.20;8.83;;;8.60;52.50;;;;;;5036782;28;20181;-68
2022/03/13 07:20:58;;;;;;;11.07;8.97;;;8.60;52.70;;;;;;5036633;28;20428;-68
2022/03/13 07:23:24;;;;;;;12.50;8.57;;;8.60;52.50;;;;;;5036185;28;20181;-68
2022/03/13 07:25:51;;;;;;;15.10;8.70;;;8.70;52.50;;;;;;5036158;28;20178;-68
2022/03/13 07:28:17;;;;;;;11.03;9.50;;;8.70;52.50;;;;;;5036326;28;20414;-68
2022/03/13 07:30:42;;;;;;;9.93;8.63;;;8.70;53.20;;;;;;5035829;28;20457;-67
2022/03/13 07:33:08;;;;;;;10.67;8.90;;;8.70;52.90;;;;;;5035793;28;20575;-68
2022/03/13 07:35:34;;;;;;;10.40;8.40;;;8.80;52.50;;;;;;5036481;28;20189;-69
2022/03/13 07:37:59;;;;;;;12.20;9.17;;;8.80;52.30;;;;;;5036265;28;20167;-68
2022/03/13 07:40:25;;;;;;;11.80;9.33;;;8.90;52.20;;;;;;5036059;28;20190;-68
2022/03/13 07:42:50;;;;;;;10.87;9.20;;;9.00;52.20;;;;;;5035736;28;20178;-68
2022/03/13 07:45:16;;;;;;;11.00;9.40;;;9.10;52.40;;;;;;5037236;28;20182;-68
2022/03/13 07:47:42;;;;;;;10.87;8.47;;;9.10;52.30;;;;;;5037372;28;20178;-68
2022/03/13 07:50:08;;;;;;;11.43;9.70;;;9.20;52.50;;;;;;5036035;28;20587;-67
2022/03/13 07:52:34;;;;;;;12.60;9.97;;;9.20;52.50;;;;;;5017707;28;20182;-69
2022/03/13 07:55:00;;;;;;;13.73;9.60;;;9.20;52.40;;;;;;5035634;28;20406;-69
2022/03/13 07:57:25;;;;;;;11.33;9.43;;;9.30;52.70;;;;;;5035388;28;20197;-71
2022/03/13 07:59:51;;;;;;;13.60;9.80;;;9.30;52.80;;;;;;5000816;28;20648;-68
2022/03/13 08:02:18;;;;;;;11.47;9.23;;;9.40;52.90;;;;;;5034451;28;20201;-69
2022/03/13 08:04:43;;;;;;;13.07;9.83;;;9.50;52.90;;;;;;5034722;28;20710;-69
2022/03/13 08:07:09;;;;;;;12.30;9.57;;;9.50;52.90;;;;;;5034599;28;20406;-70
2022/03/13 08:09:35;;;;;;;12.00;9.80;;;9.60;53.10;;;;;;5034406;28;20263;-70
2022/03/13 08:12:01;;;;;;;12.87;10.10;;;9.70;53.10;;;;;;5034474;28;20167;-70
2022/03/13 08:14:27;;;;;;;13.80;10.40;;;9.70;53.10;;;;;;5016896;28;20449;-69
2022/03/13 08:16:52;;;;;;;11.83;9.57;;;9.80;53.30;;;;;;5034388;28;20957;-69
2022/03/13 08:19:18;;;;;;;10.90;9.47;;;9.80;53.30;;;;;;5034581;28;20190;-69
2022/03/13 08:21:44;;;;;;;11.10;9.57;;;9.90;53.20;;;;;;5034376;28;20628;-68
2022/03/13 08:24:10;;;;;;;17.13;11.10;;;10.00;52.60;;;;;;5016351;28;20183;-69
2022/03/13 08:26:39;;;;;;;11.23;9.93;;;10.10;52.70;;;;;;5034265;28;20421;-70
2022/03/13 08:29:06;;;;;;;12.70;9.97;;;10.30;52.80;;;;;;5034202;28;20249;-69
2022/03/13 08:31:33;;;;;;;11.93;10.67;;;10.40;52.50;;;;;;5034021;28;21169;-69
2022/03/13 08:33:59;;;;;;;13.20;10.33;;;10.50;52.60;;;;;;5034038;28;20412;-69
2022/03/13 08:36:25;;;;;;;13.40;10.00;;;10.60;53.00;;;;;;5034105;28;20414;-69
2022/03/13 08:38:50;;;;;;;12.67;10.77;;;10.70;53.20;;;;;;5034018;28;20412;-69
2022/03/13 08:41:16;;;;;;;11.50;10.00;;;11.00;53.30;;;;;;5034220;28;20301;-70
2022/03/13 08:43:41;;;;;;;13.50;11.10;;;11.10;53.20;;;;;;5033763;28;20166;-70
2022/03/13 08:46:09;;;;;;;14.63;11.90;;;11.20;53.30;;;;;;5033864;28;20170;-69
2022/03/13 08:48:35;;;;;;;12.90;10.77;;;11.30;53.40;;;;;;5033671;28;20182;-69
2022/03/13 08:51:01;;;;;;;14.37;11.57;;;11.50;53.30;;;;;;5068754;22;20496;-68
2022/03/13 08:53:27;;;;;;;11.53;10.33;;;11.50;53.30;;;;;;5052470;28;20646;-69
2022/03/13 08:55:52;;;;;;;12.97;10.97;;;11.60;53.40;;;;;;5036062;28;20476;-68
2022/03/13 08:58:18;;;;;;;15.70;11.90;;;11.60;53.40;;;;;;5064094;28;20695;-69
2022/03/13 09:00:44;;;;;;;13.20;10.80;;;11.70;53.40;;;;;;5063316;28;20202;-69
2022/03/13 09:03:09;;;;;;;14.40;11.47;;;11.90;53.70;;;;;;5063626;28;20201;-69
2022/03/13 09:05:35;;;;;;;13.67;10.33;;;12.00;53.80;;;;;;5059220;28;20322;-69
2022/03/13 09:08:01;;;;;;;12.43;10.30;;;12.10;53.80;;;;;;5059355;28;20202;-70
2022/03/13 09:10:27;;;;;;;15.43;11.03;;;12.10;54.60;;;;;;5061584;28;20494;-68
2022/03/13 09:12:53;;;;;;;14.83;11.33;;;12.30;57.30;;;;;;5051172;28;20523;-68
2022/03/13 09:15:18;;;;;;;12.70;11.37;;;12.40;54.90;;;;;;5051887;28;20690;-68
2022/03/13 09:17:44;;;;;;;12.00;10.57;;;12.30;55.00;;;;;;5051882;28;20198;-68
2022/03/13 09:20:11;;;;;;;13.00;11.13;;;12.40;54.90;;;;;;5052128;28;20197;-69
2022/03/13 09:22:36;;;;;;;13.43;11.80;;;12.50;54.90;;;;;;5052012;28;20198;-68
2022/03/13 09:25:03;;;;;;;15.30;12.03;;;12.50;55.00;;;;;;5051892;28;20490;-68
2022/03/13 09:27:30;;;;;;;12.70;10.73;;;12.70;55.40;;;;;;5052122;28;20281;-70
2022/03/13 09:29:57;;;;;;;14.13;11.83;;;12.90;55.40;;;;;;5051880;28;20462;-69
2022/03/13 09:32:26;;;;;;;19.23;12.47;;;13.00;55.60;;;;;;5051298;28;20928;-69
2022/03/13 09:34:52;;;;;;;14.40;11.43;;;13.10;55.50;;;;;;5051585;28;20813;-69
2022/03/13 09:37:17;;;;;;;13.30;11.17;;;13.30;55.50;;;;;;5051784;28;20448;-69
2022/03/13 09:39:44;;;;;;;13.30;11.47;;;13.40;55.30;;;;;;5052134;28;20443;-69
2022/03/13 09:42:10;;;;;;;15.63;13.13;;;13.60;55.40;;;;;;5060786;28;20355;-68
2022/03/13 09:44:35;;;;;;;15.63;12.40;;;13.60;55.20;;;;;;5066050;28;20996;-69
2022/03/13 09:47:02;;;;;;;15.80;12.43;;;13.60;55.80;;;;;;5063598;28;20221;-68
2022/03/13 09:49:27;;;;;;;14.73;12.40;;;13.60;56.00;;;;;;5059489;28;20213;-69
2022/03/13 09:51:54;;;;;;;13.57;11.70;;;13.70;56.30;;;;;;5057527;28;20971;-69
2022/03/13 09:54:20;;;;;;;13.20;11.80;;;13.70;56.30;;;;;;5059751;28;20201;-69
2022/03/13 09:56:45;;;;;;;14.50;11.93;;;13.80;56.50;;;;;;5051269;28;20463;-70
2022/03/13 09:59:11;;;;;;;13.80;11.67;;;13.90;56.90;;;;;;5071419;28;20205;-72
2022/03/13 10:01:36;;;;;;;13.50;12.10;;;14.00;57.10;;;;;;5070443;28;20223;-68
2022/03/13 10:04:04;;;;;;;15.60;12.30;;;14.10;57.10;;;;;;5071322;28;20266;-70
2022/03/13 10:06:30;;;;;;;11.87;10.67;;;14.20;56.90;;;;;;5070912;28;20228;-69
2022/03/13 10:08:55;;;;;;;13.80;12.07;;;14.20;56.80;;;;;;5070486;28;20536;-69
2022/03/13 10:11:34;;;;;;;13.03;11.10;;;14.30;56.70;;;;;;5071341;28;20956;-70
2022/03/13 10:14:07;;;;;;;13.23;11.70;;;14.40;56.60;;;;;;5071061;28;20197;-69
2022/03/13 10:16:38;;;;;;;12.73;11.30;;;14.50;56.60;;;;;;5071044;28;20431;-70
2022/03/13 10:19:19;;;;;;;12.47;11.03;;;14.60;56.70;;;;;;5070860;28;20798;-69
2022/03/13 10:22:05;;;;;;;14.30;11.83;;;14.70;56.60;;;;;;5070334;28;20522;-70
2022/03/13 10:24:40;;;;;;;13.97;11.73;;;14.80;56.60;;;;;;5064875;28;20475;-69
2022/03/13 10:27:09;;;;;;;12.20;10.80;;;14.90;56.80;;;;;;5058440;28;20456;-69
2022/03/13 10:29:35;;;;;;;12.87;11.43;;;14.90;57.10;;;;;;5053743;28;20456;-69
2022/03/13 10:32:02;;;;;;;14.03;11.87;;;14.90;57.10;;;;;;5071828;28;20416;-68
2022/03/13 10:34:28;;;;;;;12.93;10.70;;;15.00;57.10;;;;;;5064696;28;20813;-69
2022/03/13 10:36:53;;;;;;;15.47;11.80;;;15.00;57.40;;;;;;5051814;28;20500;-69
2022/03/13 10:39:20;;;;;;;13.87;11.90;;;15.00;57.70;;;;;;5051596;28;20193;-69
2022/03/13 10:41:51;;;;;;;13.20;11.47;;;15.10;57.80;;;;;;5051380;28;20610;-71
2022/03/13 10:44:18;;;;;;;13.57;11.00;;;15.10;57.60;;;;;;5069518;28;20447;-68
2022/03/13 10:46:52;;;;;;;13.37;11.97;;;15.00;57.90;;;;;;5072293;28;20434;-70
2022/03/13 10:49:52;;;;;;;12.73;11.43;;;15.10;58.00;;;;;;5071759;28;20455;-69
2022/03/13 10:52:31;;;;;;;13.90;11.67;;;15.20;57.90;;;;;;5071406;28;20924;-69
2022/03/13 10:55:18;;;;;;;13.10;11.47;;;15.30;58.10;;;;;;5072190;28;20384;-70
2022/03/13 10:58:02;;;;;;;22.80;11.60;;;15.50;57.80;;;;;;5053770;28;20458;-69
2022/03/13 11:00:28;;;;;;;12.87;10.67;;;15.60;58.60;;;;;;5060873;28;20468;-70
2022/03/13 11:03:08;;;;;;;13.63;11.33;;;15.60;58.20;;;;;;5051370;28;20453;-69
2022/03/13 11:05:34;;;;;;;13.57;10.80;;;15.60;58.10;;;;;;5051598;28;20182;-68
2022/03/13 11:07:59;;;;;;;12.37;11.03;;;15.60;58.30;;;;;;5051519;28;20511;-69
2022/03/13 11:10:25;;;;;;;12.63;11.33;;;15.60;58.50;;;;;;5051422;28;20546;-69
2022/03/13 11:12:52;;;;;;;12.90;11.37;;;15.60;58.60;;;;;;5051286;28;20178;-69
2022/03/13 11:15:18;;;;;;;13.33;11.13;;;15.40;58.90;;;;;;5051586;28;20178;-69
2022/03/13 11:17:44;;;;;;;16.10;11.90;;;15.50;58.80;;;;;;5051265;28;20409;-68
2022/03/13 11:20:10;;;;;;;13.87;11.83;;;15.50;58.80;;;;;;5051197;28;20959;-70
2022/03/13 11:22:36;;;;;;;14.53;11.47;;;15.50;58.80;;;;;;5052480;28;20551;-69
2022/03/13 11:25:04;;;;;;;15.53;12.63;;;15.50;58.80;;;;;;5043498;28;20268;-70
2022/03/13 11:27:31;;;;;;;14.93;11.80;;;15.60;59.10;;;;;;5057038;28;20420;-71
2022/03/13 11:29:57;;;;;;;13.57;12.13;;;15.60;59.20;;;;;;5067212;28;20546;-69
2022/03/13 11:32:32;;;;;;;13.83;11.97;;;15.40;59.40;;;;;;5055686;28;20501;-70
2022/03/13 11:35:16;;;;;;;13.33;11.30;;;15.50;59.40;;;;;;5068563;28;20411;-69
2022/03/13 11:37:46;;;;;;;13.60;11.70;;;15.50;59.20;;;;;;5059264;28;20412;-69
2022/03/13 11:40:20;;;;;;;12.33;11.10;;;15.40;59.10;;;;;;5071279;28;20427;-69
2022/03/13 11:42:50;;;;;;;15.57;11.80;;;15.30;59.20;;;;;;5062456;28;20427;-69
2022/03/13 11:45:31;;;;;;;13.93;11.60;;;15.30;59.50;;;;;;5062850;28;20495;-69
2022/03/13 11:47:57;;;;;;;14.50;12.07;;;15.30;59.40;;;;;;5071335;28;20416;-69
2022/03/13 11:50:44;;;;;;;11.93;10.60;;;15.50;59.10;;;;;;5059246;28;20455;-69
2022/03/13 11:53:22;;;;;;;26.63;11.97;;;15.50;58.70;;;;;;5062821;28;20942;-69
2022/03/13 11:56:02;;;;;;;36.47;13.20;;;15.50;58.60;;;;;;5071423;28;20502;-71
2022/03/13 11:58:46;;;;;;;38.90;13.57;;;15.50;58.60;;;;;;5045599;28;20410;-70
2022/03/13 12:01:31;;;;;;;23.07;12.33;;;15.50;58.80;;;;;;5062815;28;20428;-69
2022/03/13 12:04:05;;;;;;;10.73;9.63;;;15.60;58.90;;;;;;5070954;28;20406;-70
2022/03/13 12:06:48;;;;;;;12.67;9.63;;;15.50;59.40;;;;;;5060325;28;20506;-69
2022/03/13 12:09:16;;;;;;;11.20;8.70;;;15.60;59.90;;;;;;5044611;28;20452;-70
2022/03/13 12:11:47;;;;;;;12.00;9.77;;;15.60;59.70;;;;;;5069541;28;20435;-69
2022/03/13 12:14:14;;;;;;;10.40;9.30;;;15.60;59.40;;;;;;5071174;28;20408;-69
2022/03/13 12:16:42;;;;;;;11.00;9.30;;;15.50;59.60;;;;;;5061503;28;20550;-69
2022/03/13 12:19:09;;;;;;;11.37;10.17;;;15.50;59.30;;;;;;5063209;28;20420;-68
2022/03/13 12:21:35;;;;;;;12.03;9.90;;;15.50;59.30;;;;;;5068794;28;20439;-69
2022/03/13 12:24:13;;;;;;;10.37;9.20;;;15.40;59.30;;;;;;5057483;28;20436;-70
2022/03/13 12:26:39;;;;;;;11.67;9.67;;;15.40;59.50;;;;;;5067283;28;20583;-70
2022/03/13 12:29:06;;;;;;;11.63;9.60;;;15.40;59.70;;;;;;5046847;28;20444;-71
2022/03/13 12:31:40;;;;;;;9.67;8.47;;;15.50;60.10;;;;;;5042331;28;20459;-69
2022/03/13 12:34:06;;;;;;;9.83;8.57;;;15.60;60.40;;;;;;5068472;28;20404;-69
2022/03/13 12:36:36;;;;;;;8.93;7.63;;;15.50;60.30;;;;;;5067165;28;20986;-69
2022/03/13 12:39:14;;;;;;;9.43;8.10;;;15.60;60.50;;;;;;5063338;28;20420;-69
2022/03/13 12:41:43;;;;;;;9.17;8.10;;;15.60;59.70;;;;;;5025141;28;20448;-69